sensor_id;sensor_type;location;lat;lon;timestamp;pressure;altitude;pressure_sealevel;temperature;humidity
37304;BME280;23188;51.188;16.374;2023-02-28T00:02:39;101667.13;;;2.49;82.08
37304;BME280;23188;51.188;16.374;2023-02-28T00:06:42;101663.59;;;2.58;81.56
37304;BME280;23188;51.188;16.374;2023-02-28T00:10:45;101659.73;;;2.64;81.31
37304;BME280;23188;51.188;16.374;2023-02-28T00:14:49;101656.11;;;2.62;81.22
37304;BME280;23188;51.188;16.374;2023-02-28T00:18:52;101651.97;;;2.46;81.83
37304;BME280;23188;51.188;16.374;2023-02-28T00:22:55;101657.74;;;2.32;82.24
37304;BME280;23188;51.188;16.374;2023-02-28T00:26:58;101653.73;;;2.32;82.86
37304;BME280;23188;51.188;16.374;2023-02-28T00:31:01;101656.65;;;2.34;82.70
37304;BME280;23188;51.188;16.374;2023-02-28T00:35:04;101654.61;;;2.39;82.97
37304;BME280;23188;51.188;16.374;2023-02-28T00:39:08;101650.90;;;2.33;82.95
37304;BME280;23188;51.188;16.374;2023-02-28T00:43:11;101656.02;;;2.24;82.46
37304;BME280;23188;51.188;16.374;2023-02-28T00:47:14;101650.08;;;2.31;82.96
37304;BME280;23188;51.188;16.374;2023-02-28T00:51:17;101650.98;;;2.37;82.58
37304;BME280;23188;51.188;16.374;2023-02-28T00:55:20;101648.65;;;2.46;82.62
37304;BME280;23188;51.188;16.374;2023-02-28T00:59:23;101643.15;;;2.42;82.62
37304;BME280;23188;51.188;16.374;2023-02-28T01:03:26;101642.27;;;2.28;82.37
37304;BME280;23188;51.188;16.374;2023-02-28T01:07:29;101643.76;;;2.32;82.95
37304;BME280;23188;51.188;16.374;2023-02-28T01:11:32;101644.70;;;2.29;83.06
37304;BME280;23188;51.188;16.374;2023-02-28T01:15:35;101641.29;;;2.25;83.15
37304;BME280;23188;51.188;16.374;2023-02-28T01:19:38;101640.38;;;2.20;83.22
37304;BME280;23188;51.188;16.374;2023-02-28T01:23:42;101643.73;;;2.20;84.14
37304;BME280;23188;51.188;16.374;2023-02-28T01:27:45;101644.83;;;2.24;84.44
37304;BME280;23188;51.188;16.374;2023-02-28T01:31:48;101644.39;;;2.21;83.76
37304;BME280;23188;51.188;16.374;2023-02-28T01:36:00;101646.58;;;2.17;84.13
37304;BME280;23188;51.188;16.374;2023-02-28T01:40:04;101646.34;;;2.26;83.68
37304;BME280;23188;51.188;16.374;2023-02-28T01:53:01;101639.70;;;2.26;82.69
37304;BME280;23188;51.188;16.374;2023-02-28T01:57:10;101644.83;;;2.24;83.51
37304;BME280;23188;51.188;16.374;2023-02-28T02:01:15;101642.48;;;2.27;83.92
37304;BME280;23188;51.188;16.374;2023-02-28T02:05:29;101642.24;;;2.36;82.93
37304;BME280;23188;51.188;16.374;2023-02-28T02:09:33;101643.15;;;2.42;82.17
37304;BME280;23188;51.188;16.374;2023-02-28T02:17:51;101641.42;;;2.27;82.13
37304;BME280;23188;51.188;16.374;2023-02-28T02:30:50;101636.48;;;2.49;81.41
37304;BME280;23188;51.188;16.374;2023-02-28T02:35:14;101635.04;;;2.44;81.52
37304;BME280;23188;51.188;16.374;2023-02-28T02:39:31;101630.23;;;2.47;80.98
37304;BME280;23188;51.188;16.374;2023-02-28T02:43:46;101630.77;;;2.40;81.16
37304;BME280;23188;51.188;16.374;2023-02-28T02:47:51;101628.79;;;2.35;81.27
37304;BME280;23188;51.188;16.374;2023-02-28T02:51:55;101626.41;;;2.39;81.78
37304;BME280;23188;51.188;16.374;2023-02-28T02:56:00;101624.05;;;2.42;80.67
37304;BME280;23188;51.188;16.374;2023-02-28T03:00:05;101622.61;;;2.51;81.10
37304;BME280;23188;51.188;16.374;2023-02-28T03:04:16;101625.39;;;2.52;81.03
37304;BME280;23188;51.188;16.374;2023-02-28T03:08:20;101628.78;;;2.42;81.68
37304;BME280;23188;51.188;16.374;2023-02-28T03:12:32;101631.66;;;2.32;81.99
37304;BME280;23188;51.188;16.374;2023-02-28T03:25:17;101634.48;;;2.10;82.80
37304;BME280;23188;51.188;16.374;2023-02-28T03:29:36;101636.54;;;2.12;82.68
37304;BME280;23188;51.188;16.374;2023-02-28T03:33:48;101639.11;;;2.22;82.71
37304;BME280;23188;51.188;16.374;2023-02-28T03:38:09;101639.73;;;2.31;81.99
37304;BME280;23188;51.188;16.374;2023-02-28T03:42:25;101635.09;;;2.42;81.73
37304;BME280;23188;51.188;16.374;2023-02-28T03:46:33;101641.13;;;2.39;81.52
37304;BME280;23188;51.188;16.374;2023-02-28T03:50:44;101646.63;;;2.22;81.83
37304;BME280;23188;51.188;16.374;2023-02-28T03:54:52;101645.52;;;2.10;82.43
37304;BME280;23188;51.188;16.374;2023-02-28T03:59:04;101648.09;;;2.20;83.06
37304;BME280;23188;51.188;16.374;2023-02-28T04:03:09;101649.13;;;2.27;82.71
37304;BME280;23188;51.188;16.374;2023-02-28T04:07:12;101651.71;;;2.29;82.54
37304;BME280;23188;51.188;16.374;2023-02-28T04:11:23;101649.56;;;2.23;82.90
37304;BME280;23188;51.188;16.374;2023-02-28T04:15:26;101645.58;;;2.15;83.72
37304;BME280;23188;51.188;16.374;2023-02-28T04:19:29;101654.48;;;2.16;84.06
37304;BME280;23188;51.188;16.374;2023-02-28T04:23:33;101657.55;;;2.19;83.58
37304;BME280;23188;51.188;16.374;2023-02-28T04:27:35;101662.91;;;2.22;83.70
37304;BME280;23188;51.188;16.374;2023-02-28T04:31:39;101667.60;;;2.23;83.92
37304;BME280;23188;51.188;16.374;2023-02-28T04:35:42;101670.46;;;2.28;84.46
37304;BME280;23188;51.188;16.374;2023-02-28T04:39:45;101673.98;;;2.34;83.91
37304;BME280;23188;51.188;16.374;2023-02-28T04:43:48;101672.21;;;2.42;83.76
37304;BME280;23188;51.188;16.374;2023-02-28T04:47:51;101677.40;;;2.38;83.55
37304;BME280;23188;51.188;16.374;2023-02-28T04:51:56;101679.22;;;2.42;83.35
37304;BME280;23188;51.188;16.374;2023-02-28T04:55:59;101675.17;;;2.49;82.91
37304;BME280;23188;51.188;16.374;2023-02-28T05:00:03;101671.77;;;2.52;82.67
37304;BME280;23188;51.188;16.374;2023-02-28T05:04:09;101674.42;;;2.58;82.29
37304;BME280;23188;51.188;16.374;2023-02-28T05:08:12;101674.33;;;2.62;82.14
37304;BME280;23188;51.188;16.374;2023-02-28T05:12:15;101679.02;;;2.64;82.66
37304;BME280;23188;51.188;16.374;2023-02-28T05:16:18;101679.60;;;2.61;83.00
37304;BME280;23188;51.188;16.374;2023-02-28T05:20:22;101681.27;;;2.58;82.84
37304;BME280;23188;51.188;16.374;2023-02-28T05:24:25;101682.27;;;2.60;81.34
37304;BME280;23188;51.188;16.374;2023-02-28T05:28:28;101680.43;;;2.63;80.77
37304;BME280;23188;51.188;16.374;2023-02-28T05:32:31;101679.03;;;2.70;80.37
37304;BME280;23188;51.188;16.374;2023-02-28T05:36:36;101682.15;;;2.71;78.98
37304;BME280;23188;51.188;16.374;2023-02-28T05:40:39;101680.80;;;2.69;78.42
37304;BME280;23188;51.188;16.374;2023-02-28T05:44:42;101689.73;;;2.62;78.35
37304;BME280;23188;51.188;16.374;2023-02-28T05:48:47;101688.51;;;2.55;78.78
37304;BME280;23188;51.188;16.374;2023-02-28T05:52:51;101696.14;;;2.51;78.07
37304;BME280;23188;51.188;16.374;2023-02-28T05:56:54;101700.80;;;2.47;78.33
37304;BME280;23188;51.188;16.374;2023-02-28T06:00:57;101702.10;;;2.44;78.78
37304;BME280;23188;51.188;16.374;2023-02-28T06:05:01;101705.48;;;2.42;78.92
37304;BME280;23188;51.188;16.374;2023-02-28T06:09:04;101707.65;;;2.39;79.04
37304;BME280;23188;51.188;16.374;2023-02-28T06:13:08;101712.52;;;2.34;79.14
37304;BME280;23188;51.188;16.374;2023-02-28T06:17:11;101721.37;;;2.29;79.83
37304;BME280;23188;51.188;16.374;2023-02-28T06:21:15;101727.23;;;2.33;79.50
37304;BME280;23188;51.188;16.374;2023-02-28T06:25:18;101726.82;;;2.36;78.95
37304;BME280;23188;51.188;16.374;2023-02-28T06:29:21;101731.75;;;2.42;79.58
37304;BME280;23188;51.188;16.374;2023-02-28T06:33:24;101732.64;;;2.49;78.65
37304;BME280;23188;51.188;16.374;2023-02-28T06:37:27;101737.63;;;2.52;77.60
37304;BME280;23188;51.188;16.374;2023-02-28T06:41:30;101741.76;;;2.55;77.23
37304;BME280;23188;51.188;16.374;2023-02-28T06:46:01;101741.93;;;2.62;77.01
37304;BME280;23188;51.188;16.374;2023-02-28T06:50:05;101747.60;;;2.74;76.46
37304;BME280;23188;51.188;16.374;2023-02-28T06:54:08;101752.00;;;2.80;75.24
37304;BME280;23188;51.188;16.374;2023-02-28T06:58:12;101751.64;;;2.81;73.14
37304;BME280;23188;51.188;16.374;2023-02-28T07:02:17;101749.96;;;2.84;74.11
37304;BME280;23188;51.188;16.374;2023-02-28T07:06:22;101753.57;;;2.88;74.10
37304;BME280;23188;51.188;16.374;2023-02-28T07:10:25;101755.20;;;2.91;73.53
37304;BME280;23188;51.188;16.374;2023-02-28T07:14:28;101759.38;;;3.00;73.33
37304;BME280;23188;51.188;16.374;2023-02-28T07:18:31;101760.27;;;3.06;72.76
37304;BME280;23188;51.188;16.374;2023-02-28T07:22:34;101763.55;;;3.14;73.15
37304;BME280;23188;51.188;16.374;2023-02-28T07:26:37;101766.69;;;3.21;73.67
37304;BME280;23188;51.188;16.374;2023-02-28T07:30:40;101768.49;;;3.26;73.67
37304;BME280;23188;51.188;16.374;2023-02-28T07:34:44;101770.14;;;3.30;73.52
37304;BME280;23188;51.188;16.374;2023-02-28T07:38:47;101771.45;;;3.39;74.07
37304;BME280;23188;51.188;16.374;2023-02-28T07:42:52;101770.52;;;3.48;72.92
37304;BME280;23188;51.188;16.374;2023-02-28T07:46:55;101773.73;;;3.59;72.48
37304;BME280;23188;51.188;16.374;2023-02-28T07:50:59;101776.71;;;3.77;72.11
37304;BME280;23188;51.188;16.374;2023-02-28T07:55:03;101776.11;;;3.98;71.86
37304;BME280;23188;51.188;16.374;2023-02-28T07:59:07;101775.70;;;4.11;69.83
37304;BME280;23188;51.188;16.374;2023-02-28T08:03:13;101770.77;;;4.23;69.08
37304;BME280;23188;51.188;16.374;2023-02-28T08:07:16;101776.08;;;4.27;68.77
37304;BME280;23188;51.188;16.374;2023-02-28T08:11:20;101776.34;;;4.36;68.79
37304;BME280;23188;51.188;16.374;2023-02-28T08:15:23;101775.94;;;4.49;68.35
37304;BME280;23188;51.188;16.374;2023-02-28T08:24:18;101771.68;;;4.71;63.66
37304;BME280;23188;51.188;16.374;2023-02-28T09:08:57;101773.36;;;5.05;57.01
37304;BME280;23188;51.188;16.374;2023-02-28T09:13:29;101775.30;;;5.10;55.90
37304;BME280;23188;51.188;16.374;2023-02-28T09:18:00;101774.27;;;5.09;54.60
37304;BME280;23188;51.188;16.374;2023-02-28T09:22:03;101771.84;;;5.09;53.71
37304;BME280;23188;51.188;16.374;2023-02-28T09:26:16;101770.66;;;5.07;54.11
37304;BME280;23188;51.188;16.374;2023-02-28T09:30:19;101767.33;;;5.12;54.69
37304;BME280;23188;51.188;16.374;2023-02-28T09:34:22;101765.39;;;5.27;55.12
37304;BME280;23188;51.188;16.374;2023-02-28T09:38:52;101762.55;;;5.18;55.02
37304;BME280;23188;51.188;16.374;2023-02-28T09:42:57;101763.34;;;4.90;55.09
37304;BME280;23188;51.188;16.374;2023-02-28T09:47:34;101762.73;;;4.72;54.78
37304;BME280;23188;51.188;16.374;2023-02-28T09:56:12;101760.05;;;4.83;56.26
37304;BME280;23188;51.188;16.374;2023-02-28T10:00:32;101766.29;;;4.81;55.13
37304;BME280;23188;51.188;16.374;2023-02-28T10:04:55;101765.08;;;4.80;54.64
37304;BME280;23188;51.188;16.374;2023-02-28T10:09:03;101769.83;;;4.90;55.30
37304;BME280;23188;51.188;16.374;2023-02-28T10:18:06;101764.14;;;4.92;55.80
37304;BME280;23188;51.188;16.374;2023-02-28T10:23:11;101760.46;;;4.91;55.14
37304;BME280;23188;51.188;16.374;2023-02-28T10:27:39;101754.52;;;4.85;54.63
37304;BME280;23188;51.188;16.374;2023-02-28T10:32:08;101750.67;;;4.75;55.67
37304;BME280;23188;51.188;16.374;2023-02-28T10:36:15;101746.70;;;4.77;55.74
37304;BME280;23188;51.188;16.374;2023-02-28T10:44:25;101739.94;;;5.40;54.09
37304;BME280;23188;51.188;16.374;2023-02-28T10:52:39;101731.77;;;5.47;53.91
37304;BME280;23188;51.188;16.374;2023-02-28T10:56:42;101730.17;;;5.47;54.35
37304;BME280;23188;51.188;16.374;2023-02-28T11:00:45;101725.45;;;5.52;54.14
37304;BME280;23188;51.188;16.374;2023-02-28T11:04:49;101727.11;;;5.54;54.54
37304;BME280;23188;51.188;16.374;2023-02-28T11:13:34;101722.20;;;5.72;54.19
37304;BME280;23188;51.188;16.374;2023-02-28T11:17:37;101727.27;;;5.69;53.67
37304;BME280;23188;51.188;16.374;2023-02-28T11:21:50;101726.55;;;5.69;55.29
37304;BME280;23188;51.188;16.374;2023-02-28T11:26:16;101725.83;;;5.88;54.14
37304;BME280;23188;51.188;16.374;2023-02-28T11:39:15;101718.33;;;6.05;53.47
37304;BME280;23188;51.188;16.374;2023-02-28T11:43:22;101718.02;;;6.04;53.14
37304;BME280;23188;51.188;16.374;2023-02-28T11:51:54;101715.34;;;5.95;54.16
37304;BME280;23188;51.188;16.374;2023-02-28T11:56:33;101710.42;;;6.04;53.62
37304;BME280;23188;51.188;16.374;2023-02-28T12:00:40;101705.98;;;6.01;52.98
37304;BME280;23188;51.188;16.374;2023-02-28T12:09:11;101693.39;;;6.38;52.73
37304;BME280;23188;51.188;16.374;2023-02-28T12:22:18;101677.79;;;6.66;51.34
37304;BME280;23188;51.188;16.374;2023-02-28T12:26:52;101674.80;;;6.82;51.46
37304;BME280;23188;51.188;16.374;2023-02-28T12:31:21;101673.48;;;6.88;51.03
37304;BME280;23188;51.188;16.374;2023-02-28T12:35:33;101662.39;;;6.71;51.82
37304;BME280;23188;51.188;16.374;2023-02-28T12:39:45;101660.04;;;6.52;53.70
37304;BME280;23188;51.188;16.374;2023-02-28T12:44:01;101657.64;;;6.59;53.18
37304;BME280;23188;51.188;16.374;2023-02-28T12:48:07;101655.57;;;6.49;51.88
37304;BME280;23188;51.188;16.374;2023-02-28T12:52:10;101648.66;;;6.58;53.17
37304;BME280;23188;51.188;16.374;2023-02-28T13:01:06;101647.25;;;6.79;52.03
37304;BME280;23188;51.188;16.374;2023-02-28T13:09:52;101634.91;;;6.51;53.25
37304;BME280;23188;51.188;16.374;2023-02-28T13:13:58;101639.21;;;6.48;52.99
37304;BME280;23188;51.188;16.374;2023-02-28T13:18:01;101641.08;;;6.37;53.61
37304;BME280;23188;51.188;16.374;2023-02-28T13:22:05;101640.91;;;6.29;53.33
37304;BME280;23188;51.188;16.374;2023-02-28T13:31:16;101637.27;;;6.19;53.58
37304;BME280;23188;51.188;16.374;2023-02-28T13:35:42;101638.67;;;6.20;53.92
37304;BME280;23188;51.188;16.374;2023-02-28T13:39:52;101637.88;;;6.13;55.79
37304;BME280;23188;51.188;16.374;2023-02-28T13:44:00;101639.89;;;6.06;55.15
37304;BME280;23188;51.188;16.374;2023-02-28T13:48:19;101634.29;;;6.06;54.52
37304;BME280;23188;51.188;16.374;2023-02-28T13:52:23;101630.64;;;6.09;54.40
37304;BME280;23188;51.188;16.374;2023-02-28T13:56:35;101629.66;;;6.16;53.75
37304;BME280;23188;51.188;16.374;2023-02-28T14:05:17;101617.19;;;6.48;53.06
37304;BME280;23188;51.188;16.374;2023-02-28T14:09:45;101615.02;;;6.62;53.30
37304;BME280;23188;51.188;16.374;2023-02-28T14:14:00;101609.38;;;6.70;52.80
37304;BME280;23188;51.188;16.374;2023-02-28T14:18:20;101597.91;;;6.70;52.09
37304;BME280;23188;51.188;16.374;2023-02-28T14:31:34;101594.76;;;6.74;51.69
37304;BME280;23188;51.188;16.374;2023-02-28T14:35:50;101595.85;;;6.73;51.87
37304;BME280;23188;51.188;16.374;2023-02-28T14:39:57;101594.68;;;6.80;52.31
37304;BME280;23188;51.188;16.374;2023-02-28T14:44:03;101589.20;;;6.83;52.84
37304;BME280;23188;51.188;16.374;2023-02-28T14:48:15;101586.68;;;6.77;51.87
37304;BME280;23188;51.188;16.374;2023-02-28T14:52:22;101584.95;;;6.72;51.87
37304;BME280;23188;51.188;16.374;2023-02-28T14:56:34;101587.92;;;6.73;52.24
37304;BME280;23188;51.188;16.374;2023-02-28T15:00:48;101592.42;;;6.71;52.89
37304;BME280;23188;51.188;16.374;2023-02-28T15:04:57;101593.98;;;6.72;52.48
37304;BME280;23188;51.188;16.374;2023-02-28T15:09:18;101593.12;;;6.59;52.73
37304;BME280;23188;51.188;16.374;2023-02-28T15:13:22;101596.63;;;6.47;52.35
37304;BME280;23188;51.188;16.374;2023-02-28T15:26:51;101597.77;;;6.03;52.90
37304;BME280;23188;51.188;16.374;2023-02-28T15:30:59;101596.45;;;6.01;55.31
37304;BME280;23188;51.188;16.374;2023-02-28T15:35:28;101595.79;;;5.95;54.40
37304;BME280;23188;51.188;16.374;2023-02-28T15:39:31;101590.70;;;5.90;55.85
37304;BME280;23188;51.188;16.374;2023-02-28T15:43:44;101590.52;;;5.77;54.61
37304;BME280;23188;51.188;16.374;2023-02-28T15:47:48;101590.73;;;5.63;55.27
37304;BME280;23188;51.188;16.374;2023-02-28T15:51:53;101591.42;;;5.50;55.98
37304;BME280;23188;51.188;16.374;2023-02-28T15:56:05;101590.76;;;5.36;57.03
37304;BME280;23188;51.188;16.374;2023-02-28T16:00:14;101590.30;;;5.20;57.27
37304;BME280;23188;51.188;16.374;2023-02-28T16:04:19;101595.55;;;5.06;60.30
37304;BME280;23188;51.188;16.374;2023-02-28T16:08:23;101598.71;;;4.92;62.41
37304;BME280;23188;51.188;16.374;2023-02-28T16:12:28;101599.69;;;4.75;63.80
37304;BME280;23188;51.188;16.374;2023-02-28T16:16:32;101604.42;;;4.55;64.68
37304;BME280;23188;51.188;16.374;2023-02-28T16:20:36;101606.90;;;4.34;64.40
37304;BME280;23188;51.188;16.374;2023-02-28T16:24:41;101610.64;;;4.17;65.40
37304;BME280;23188;51.188;16.374;2023-02-28T16:28:44;101610.86;;;4.00;66.15
37304;BME280;23188;51.188;16.374;2023-02-28T16:32:49;101612.50;;;3.81;67.26
37304;BME280;23188;51.188;16.374;2023-02-28T16:36:52;101614.86;;;3.63;67.76
37304;BME280;23188;51.188;16.374;2023-02-28T16:40:59;101616.41;;;3.46;67.63
37304;BME280;23188;51.188;16.374;2023-02-28T16:45:03;101617.77;;;3.36;67.42
37304;BME280;23188;51.188;16.374;2023-02-28T16:49:11;101617.12;;;3.29;67.17
37304;BME280;23188;51.188;16.374;2023-02-28T16:53:15;101617.17;;;3.20;67.47
37304;BME280;23188;51.188;16.374;2023-02-28T16:57:22;101618.67;;;3.17;67.92
37304;BME280;23188;51.188;16.374;2023-02-28T17:01:26;101623.16;;;3.13;67.80
37304;BME280;23188;51.188;16.374;2023-02-28T17:05:37;101622.05;;;3.09;67.65
37304;BME280;23188;51.188;16.374;2023-02-28T17:09:43;101621.08;;;3.07;67.31
37304;BME280;23188;51.188;16.374;2023-02-28T17:13:48;101625.15;;;3.05;67.34
37304;BME280;23188;51.188;16.374;2023-02-28T17:17:52;101625.76;;;3.02;66.85
37304;BME280;23188;51.188;16.374;2023-02-28T17:21:56;101622.71;;;2.98;66.71
37304;BME280;23188;51.188;16.374;2023-02-28T17:26:00;101623.30;;;2.96;66.85
37304;BME280;23188;51.188;16.374;2023-02-28T17:34:17;101621.78;;;2.82;67.59
37304;BME280;23188;51.188;16.374;2023-02-28T17:38:24;101626.20;;;2.74;68.22
37304;BME280;23188;51.188;16.374;2023-02-28T17:42:28;101627.11;;;2.66;68.61
37304;BME280;23188;51.188;16.374;2023-02-28T17:46:31;101627.27;;;2.60;69.26
37304;BME280;23188;51.188;16.374;2023-02-28T17:50:35;101627.81;;;2.53;69.64
37304;BME280;23188;51.188;16.374;2023-02-28T17:54:39;101636.45;;;2.44;69.70
37304;BME280;23188;51.188;16.374;2023-02-28T17:58:42;101636.67;;;2.35;69.99
37304;BME280;23188;51.188;16.374;2023-02-28T18:02:45;101642.70;;;2.25;70.51
37304;BME280;23188;51.188;16.374;2023-02-28T18:06:48;101643.89;;;2.19;70.80
37304;BME280;23188;51.188;16.374;2023-02-28T18:10:54;101649.02;;;2.18;70.61
37304;BME280;23188;51.188;16.374;2023-02-28T18:14:58;101650.71;;;2.11;70.66
37304;BME280;23188;51.188;16.374;2023-02-28T18:19:01;101650.53;;;2.05;70.75
37304;BME280;23188;51.188;16.374;2023-02-28T18:23:05;101655.38;;;2.00;70.99
37304;BME280;23188;51.188;16.374;2023-02-28T18:27:09;101647.97;;;1.95;71.48
37304;BME280;23188;51.188;16.374;2023-02-28T18:31:16;101644.65;;;1.88;71.75
37304;BME280;23188;51.188;16.374;2023-02-28T18:35:21;101641.61;;;1.82;72.03
37304;BME280;23188;51.188;16.374;2023-02-28T18:39:36;101641.53;;;1.79;72.40
37304;BME280;23188;51.188;16.374;2023-02-28T18:43:39;101645.80;;;1.75;72.96
37304;BME280;23188;51.188;16.374;2023-02-28T18:47:43;101648.94;;;1.76;72.86
37304;BME280;23188;51.188;16.374;2023-02-28T18:51:46;101652.30;;;1.74;73.03
37304;BME280;23188;51.188;16.374;2023-02-28T18:55:50;101649.91;;;1.72;73.20
37304;BME280;23188;51.188;16.374;2023-02-28T18:59:53;101649.08;;;1.70;73.12
37304;BME280;23188;51.188;16.374;2023-02-28T19:03:58;101654.51;;;1.69;73.24
37304;BME280;23188;51.188;16.374;2023-02-28T19:08:02;101656.19;;;1.64;73.41
37304;BME280;23188;51.188;16.374;2023-02-28T19:12:07;101655.39;;;1.61;73.75
37304;BME280;23188;51.188;16.374;2023-02-28T19:16:12;101649.83;;;1.60;73.79
37304;BME280;23188;51.188;16.374;2023-02-28T19:20:16;101647.19;;;1.61;73.25
37304;BME280;23188;51.188;16.374;2023-02-28T19:24:19;101648.40;;;1.62;73.10
37304;BME280;23188;51.188;16.374;2023-02-28T19:28:23;101651.67;;;1.64;73.17
37304;BME280;23188;51.188;16.374;2023-02-28T19:32:29;101653.67;;;1.60;73.36
37304;BME280;23188;51.188;16.374;2023-02-28T19:36:33;101654.40;;;1.59;73.54
37304;BME280;23188;51.188;16.374;2023-02-28T19:40:36;101656.32;;;1.59;73.57
37304;BME280;23188;51.188;16.374;2023-02-28T19:44:42;101657.55;;;1.60;73.40
37304;BME280;23188;51.188;16.374;2023-02-28T19:48:45;101658.96;;;1.58;73.12
37304;BME280;23188;51.188;16.374;2023-02-28T19:52:51;101664.73;;;1.58;73.03
37304;BME280;23188;51.188;16.374;2023-02-28T19:56:54;101667.13;;;1.61;72.78
37304;BME280;23188;51.188;16.374;2023-02-28T20:01:17;101664.27;;;1.55;72.56
37304;BME280;23188;51.188;16.374;2023-02-28T20:05:21;101666.86;;;1.49;72.49
37304;BME280;23188;51.188;16.374;2023-02-28T20:09:28;101668.38;;;1.42;72.53
37304;BME280;23188;51.188;16.374;2023-02-28T20:13:32;101672.64;;;1.31;73.09
37304;BME280;23188;51.188;16.374;2023-02-28T20:17:36;101670.27;;;1.19;72.98
37304;BME280;23188;51.188;16.374;2023-02-28T20:21:39;101669.39;;;1.10;73.16
37304;BME280;23188;51.188;16.374;2023-02-28T20:25:45;101668.55;;;1.01;73.79
37304;BME280;23188;51.188;16.374;2023-02-28T20:29:48;101667.77;;;0.95;74.06
37304;BME280;23188;51.188;16.374;2023-02-28T20:33:52;101663.44;;;0.93;74.23
37304;BME280;23188;51.188;16.374;2023-02-28T20:37:57;101664.20;;;0.89;74.12
37304;BME280;23188;51.188;16.374;2023-02-28T20:42:00;101666.24;;;0.83;74.63
37304;BME280;23188;51.188;16.374;2023-02-28T20:46:04;101667.02;;;0.69;75.79
37304;BME280;23188;51.188;16.374;2023-02-28T20:50:08;101665.45;;;0.59;78.84
37304;BME280;23188;51.188;16.374;2023-02-28T20:54:12;101659.09;;;0.54;79.15
37304;BME280;23188;51.188;16.374;2023-02-28T20:58:19;101658.95;;;0.52;78.80
37304;BME280;23188;51.188;16.374;2023-02-28T21:02:22;101657.30;;;0.47;77.66
37304;BME280;23188;51.188;16.374;2023-02-28T21:06:27;101665.35;;;0.45;77.71
37304;BME280;23188;51.188;16.374;2023-02-28T21:10:32;101665.29;;;0.38;77.54
37304;BME280;23188;51.188;16.374;2023-02-28T21:14:35;101663.52;;;0.30;77.72
37304;BME280;23188;51.188;16.374;2023-02-28T21:18:40;101661.45;;;0.28;78.06
37304;BME280;23188;51.188;16.374;2023-02-28T21:22:43;101662.42;;;0.32;78.68
37304;BME280;23188;51.188;16.374;2023-02-28T21:26:47;101660.45;;;0.36;79.09
37304;BME280;23188;51.188;16.374;2023-02-28T21:30:51;101657.16;;;0.34;79.19
37304;BME280;23188;51.188;16.374;2023-02-28T21:34:54;101650.80;;;0.29;79.18
37304;BME280;23188;51.188;16.374;2023-02-28T21:38:59;101647.02;;;0.25;79.14
37304;BME280;23188;51.188;16.374;2023-02-28T21:43:03;101646.95;;;0.19;80.43
37304;BME280;23188;51.188;16.374;2023-02-28T21:47:07;101643.23;;;0.12;80.38
37304;BME280;23188;51.188;16.374;2023-02-28T21:51:13;101650.04;;;0.12;79.98
37304;BME280;23188;51.188;16.374;2023-02-28T21:55:16;101654.11;;;0.07;81.00
37304;BME280;23188;51.188;16.374;2023-02-28T21:59:19;101657.46;;;0.05;81.06
37304;BME280;23188;51.188;16.374;2023-02-28T22:03:22;101658.79;;;-0.02;80.77
37304;BME280;23188;51.188;16.374;2023-02-28T22:07:25;101664.59;;;-0.05;81.44
37304;BME280;23188;51.188;16.374;2023-02-28T22:11:29;101664.14;;;-0.10;81.79
37304;BME280;23188;51.188;16.374;2023-02-28T22:15:36;101661.90;;;-0.11;81.30
37304;BME280;23188;51.188;16.374;2023-02-28T22:19:39;101671.84;;;-0.11;81.40
37304;BME280;23188;51.188;16.374;2023-02-28T22:23:43;101680.98;;;-0.15;81.13
37304;BME280;23188;51.188;16.374;2023-02-28T22:27:48;101683.17;;;-0.11;81.94
37304;BME280;23188;51.188;16.374;2023-02-28T22:31:51;101684.77;;;-0.01;83.03
37304;BME280;23188;51.188;16.374;2023-02-28T22:35:54;101687.06;;;0.08;83.41
37304;BME280;23188;51.188;16.374;2023-02-28T22:39:57;101688.02;;;0.14;83.01
37304;BME280;23188;51.188;16.374;2023-02-28T22:44:03;101687.64;;;0.16;82.43
37304;BME280;23188;51.188;16.374;2023-02-28T22:48:07;101686.69;;;0.22;82.77
37304;BME280;23188;51.188;16.374;2023-02-28T22:52:11;101689.20;;;0.27;82.83
37304;BME280;23188;51.188;16.374;2023-02-28T22:56:16;101691.45;;;0.29;82.79
37304;BME280;23188;51.188;16.374;2023-02-28T23:00:19;101693.73;;;0.29;82.81
37304;BME280;23188;51.188;16.374;2023-02-28T23:04:23;101691.13;;;0.27;83.48
37304;BME280;23188;51.188;16.374;2023-02-28T23:08:28;101689.88;;;0.30;83.67
37304;BME280;23188;51.188;16.374;2023-02-28T23:12:32;101685.50;;;0.19;83.24
37304;BME280;23188;51.188;16.374;2023-02-28T23:16:43;101692.67;;;0.07;83.93
37304;BME280;23188;51.188;16.374;2023-02-28T23:20:46;101700.23;;;0.03;84.16
37304;BME280;23188;51.188;16.374;2023-02-28T23:24:50;101705.85;;;0.01;83.48
37304;BME280;23188;51.188;16.374;2023-02-28T23:28:55;101702.13;;;-0.08;82.90
37304;BME280;23188;51.188;16.374;2023-02-28T23:32:59;101700.72;;;-0.31;83.91
37304;BME280;23188;51.188;16.374;2023-02-28T23:37:02;101697.58;;;-0.58;84.65
37304;BME280;23188;51.188;16.374;2023-02-28T23:41:09;101699.83;;;-0.71;83.92
37304;BME280;23188;51.188;16.374;2023-02-28T23:45:13;101702.17;;;-0.77;83.76
37304;BME280;23188;51.188;16.374;2023-02-28T23:49:17;101703.74;;;-0.77;84.11
37304;BME280;23188;51.188;16.374;2023-02-28T23:53:24;101707.70;;;-0.75;84.54
37304;BME280;23188;51.188;16.374;2023-02-28T23:57:27;101703.89;;;-0.76;84.43
